createdAt,value
2022-11-26T00:01:19.689Z,11.25
2022-11-26T00:03:49.193Z,10.57
2022-11-26T00:06:26.337Z,10.20
2022-11-26T00:08:55.142Z,11.05
2022-11-26T00:11:25.839Z,11.50
2022-11-26T00:13:54.176Z,11.25
2022-11-26T00:16:23.917Z,10.27
2022-11-26T00:18:52.189Z,9.98
2022-11-26T00:21:23.978Z,11.23
2022-11-26T00:23:53.181Z,11.30
2022-11-26T00:26:23.799Z,11.75
2022-11-26T00:28:54.153Z,10.82
2022-11-26T00:31:24.646Z,11.20
2022-11-26T00:33:53.944Z,10.95
2022-11-26T00:36:26.166Z,12.27
2022-11-26T00:38:58.279Z,13.10
2022-11-26T00:41:30.293Z,13.13
2022-11-26T00:44:00.102Z,13.20
2022-11-26T00:46:30.164Z,12.30
2022-11-26T00:48:58.337Z,14.70
2022-11-26T00:51:28.329Z,14.23
2022-11-26T00:54:02.512Z,15.45
2022-11-26T00:56:37.882Z,14.95
2022-11-26T00:59:06.800Z,15.77
2022-11-26T01:01:37.669Z,14.60
2022-11-26T01:04:06.289Z,14.68
2022-11-26T01:06:36.753Z,14.85
2022-11-26T01:09:08.171Z,15.20
2022-11-26T01:11:37.553Z,15.60
2022-11-26T01:14:07.517Z,15.10
2022-11-26T01:16:42.174Z,16.00
2022-11-26T01:19:12.374Z,14.40
2022-11-26T01:21:40.818Z,15.60
2022-11-26T01:24:09.741Z,14.30
2022-11-26T01:26:41.364Z,14.50
2022-11-26T01:29:15.427Z,15.02
2022-11-26T01:31:45.529Z,15.70
2022-11-26T01:34:14.200Z,15.23
2022-11-26T01:36:44.601Z,15.65
2022-11-26T01:39:17.885Z,14.32
2022-11-26T01:41:52.070Z,13.98
2022-11-26T01:44:23.163Z,13.65
2022-11-26T01:46:56.374Z,15.55
2022-11-26T01:49:32.105Z,13.70
2022-11-26T01:52:06.144Z,14.73
2022-11-26T01:54:38.092Z,14.45
2022-11-26T01:57:11.546Z,13.57
2022-11-26T01:59:44.565Z,14.20
2022-11-26T02:02:14.265Z,15.65
2022-11-26T02:04:47.894Z,16.63
2022-11-26T02:07:16.735Z,16.23
2022-11-26T02:09:46.304Z,15.23
2022-11-26T02:12:14.944Z,17.27
2022-11-26T02:14:45.132Z,16.23
2022-11-26T02:17:25.147Z,16.00
2022-11-26T02:20:36.249Z,17.05
2022-11-26T02:23:43.708Z,17.10
2022-11-26T02:27:05.699Z,16.33
2022-11-26T02:30:08.247Z,16.17
2022-11-26T02:32:50.221Z,15.20
2022-11-26T02:35:24.605Z,16.88
2022-11-26T02:37:57.645Z,16.35
2022-11-26T02:40:26.666Z,17.55
2022-11-26T02:42:55.047Z,16.85
2022-11-26T02:45:28.108Z,17.15
2022-11-26T02:48:01.906Z,15.27
2022-11-26T02:50:34.502Z,17.23
2022-11-26T02:53:05.781Z,16.75
2022-11-26T02:55:39.058Z,17.23
2022-11-26T02:58:08.462Z,17.92
2022-11-26T03:00:42.110Z,18.88
2022-11-26T03:03:22.928Z,18.73
2022-11-26T03:05:54.739Z,20.00
2022-11-26T03:08:23.549Z,19.02
2022-11-26T03:10:51.751Z,17.63
2022-11-26T03:13:20.293Z,18.50
2022-11-26T03:15:49.896Z,19.38
2022-11-26T03:18:18.277Z,19.88
2022-11-26T03:20:46.610Z,18.20
2022-11-26T03:23:15.868Z,19.75
2022-11-26T03:25:44.160Z,19.15
2022-11-26T03:28:14.469Z,19.50
2022-11-26T03:30:42.838Z,19.58
2022-11-26T03:33:14.208Z,19.02
2022-11-26T03:35:42.605Z,18.15
2022-11-26T03:38:11.937Z,18.80
2022-11-26T03:40:40.502Z,20.63
2022-11-26T03:43:09.746Z,18.77
2022-11-26T03:45:38.023Z,19.10
2022-11-26T03:48:07.050Z,18.38
2022-11-26T03:50:36.677Z,18.70
2022-11-26T03:53:06.160Z,18.83
2022-11-26T03:55:34.383Z,19.38
2022-11-26T03:58:04.238Z,19.35
2022-11-26T04:00:32.670Z,19.52
2022-11-26T04:03:01.912Z,18.50
2022-11-26T04:05:30.256Z,18.38
2022-11-26T04:08:00.284Z,19.33
2022-11-26T04:10:28.620Z,18.25
2022-11-26T04:12:56.927Z,18.90
2022-11-26T04:15:25.635Z,17.63
2022-11-26T04:17:54.726Z,18.80
2022-11-26T04:20:23.483Z,16.83
2022-11-26T04:22:52.806Z,16.00
2022-11-26T04:25:22.700Z,16.63
2022-11-26T04:27:50.857Z,16.08
2022-11-26T04:30:20.023Z,16.08
2022-11-26T04:32:48.185Z,15.32
2022-11-26T04:35:18.004Z,15.13
2022-11-26T04:37:47.889Z,15.10
2022-11-26T04:40:18.249Z,14.18
2022-11-26T04:42:47.927Z,14.13
2022-11-26T04:45:18.042Z,15.20
2022-11-26T04:47:48.242Z,14.65
2022-11-26T04:50:16.537Z,14.32
2022-11-26T04:52:44.739Z,13.60
2022-11-26T04:55:13.455Z,13.10
2022-11-26T04:57:43.323Z,13.45
2022-11-26T05:00:16.930Z,14.45
2022-11-26T05:02:47.661Z,13.13
2022-11-26T05:05:16.175Z,13.95
2022-11-26T05:07:45.996Z,13.43
2022-11-26T05:10:14.558Z,13.48
2022-11-26T05:12:44.725Z,13.15
2022-11-26T05:15:14.323Z,12.60
2022-11-26T05:17:43.215Z,12.25
2022-11-26T05:20:14.889Z,13.68
2022-11-26T05:22:43.196Z,12.55
2022-11-26T05:25:11.679Z,13.10
2022-11-26T05:27:41.683Z,13.05
2022-11-26T05:30:15.109Z,12.43
2022-11-26T05:32:44.969Z,12.52
2022-11-26T05:35:14.846Z,12.13
2022-11-26T05:37:43.496Z,12.20
2022-11-26T05:40:14.367Z,12.23
2022-11-26T05:42:43.389Z,11.13
2022-11-26T05:45:15.753Z,11.40
2022-11-26T05:47:45.334Z,10.13
2022-11-26T05:50:14.821Z,10.32
2022-11-26T05:52:43.055Z,12.27
2022-11-26T05:55:11.554Z,10.75
2022-11-26T05:57:39.773Z,12.02
2022-11-26T06:00:12.288Z,10.13
2022-11-26T06:02:41.942Z,10.23
2022-11-26T06:05:11.033Z,9.75
2022-11-26T06:07:43.264Z,10.05
2022-11-26T06:10:13.390Z,9.00
2022-11-26T06:12:42.328Z,10.00
2022-11-26T06:15:11.838Z,8.57
2022-11-26T06:17:43.414Z,8.70
2022-11-26T06:20:13.142Z,8.95
2022-11-26T06:22:42.658Z,9.55
2022-11-26T06:25:13.348Z,8.85
2022-11-26T06:27:42.738Z,9.48
2022-11-26T06:30:13.305Z,10.05
2022-11-26T06:32:43.161Z,9.80
2022-11-26T06:35:12.638Z,9.10
2022-11-26T06:37:41.953Z,9.80
2022-11-26T06:40:18.360Z,9.85
2022-11-26T06:42:49.985Z,9.80
2022-11-26T06:45:18.420Z,11.35
2022-11-26T06:47:49.399Z,11.27
2022-11-26T06:50:21.207Z,10.32
2022-11-26T06:52:52.059Z,10.82
2022-11-26T06:55:21.764Z,11.70
2022-11-26T06:57:52.154Z,11.23
2022-11-26T07:00:22.020Z,10.75
2022-11-26T07:02:52.489Z,10.93
2022-11-26T07:05:21.251Z,11.35
2022-11-26T07:07:49.627Z,11.23
2022-11-26T07:10:18.045Z,11.90
2022-11-26T07:12:46.323Z,10.80
2022-11-26T07:15:14.497Z,12.02
2022-11-26T07:17:44.287Z,10.68
2022-11-26T07:20:15.343Z,10.27
2022-11-26T07:22:44.991Z,10.95
2022-11-26T07:25:15.230Z,10.40
2022-11-26T07:27:43.666Z,9.63
2022-11-26T07:30:13.037Z,8.38
2022-11-26T07:32:41.359Z,9.32
2022-11-26T07:35:09.837Z,9.98
2022-11-26T07:37:40.295Z,8.77
2022-11-26T07:40:09.625Z,9.70
2022-11-26T07:42:40.708Z,9.90
2022-11-26T07:45:09.697Z,9.18
2022-11-26T07:47:38.695Z,9.35
2022-11-26T07:50:09.006Z,9.52
2022-11-26T07:52:39.095Z,9.25
2022-11-26T07:55:12.463Z,8.05
2022-11-26T07:57:41.057Z,8.18
2022-11-26T08:00:10.667Z,7.85
2022-11-26T08:02:39.919Z,8.65
2022-11-26T08:05:09.382Z,7.80
2022-11-26T08:07:40.031Z,8.70
2022-11-26T08:10:11.167Z,8.45
2022-11-26T08:12:39.364Z,9.20
2022-11-26T08:15:10.258Z,7.50
2022-11-26T08:17:38.980Z,8.40
2022-11-26T08:20:10.433Z,8.55
2022-11-26T08:22:41.944Z,8.38
2022-11-26T08:25:11.380Z,8.80
2022-11-26T08:27:40.430Z,8.45
2022-11-26T08:30:09.731Z,9.93
2022-11-26T08:32:38.097Z,9.30
2022-11-26T08:35:06.811Z,8.75
2022-11-26T08:37:35.942Z,7.82
2022-11-26T08:40:07.088Z,8.45
2022-11-26T08:42:36.086Z,7.88
2022-11-26T08:45:05.301Z,8.98
2022-11-26T08:47:34.067Z,9.27
2022-11-26T08:50:04.176Z,8.35
2022-11-26T08:52:32.437Z,8.60
2022-11-26T08:55:01.339Z,8.50
2022-11-26T08:57:31.155Z,7.70
2022-11-26T08:59:59.920Z,8.57
2022-11-26T09:02:28.337Z,8.20
2022-11-26T09:04:56.499Z,7.53
2022-11-26T09:07:25.947Z,6.93
2022-11-26T09:09:55.027Z,7.50
2022-11-26T09:12:24.041Z,7.90
2022-11-26T09:14:53.707Z,7.68
2022-11-26T09:17:22.356Z,7.63
2022-11-26T09:19:52.878Z,6.82
2022-11-26T09:22:22.697Z,7.65
2022-11-26T09:24:51.257Z,6.78
2022-11-26T09:27:19.459Z,6.35
2022-11-26T09:29:48.666Z,7.32
2022-11-26T09:32:29.737Z,7.35
2022-11-26T09:35:03.300Z,6.93
2022-11-26T09:37:32.899Z,7.13
2022-11-26T09:40:01.624Z,6.97
2022-11-26T09:42:43.483Z,8.00
2022-11-26T09:45:22.127Z,6.55
2022-11-26T09:47:54.803Z,6.07
2022-11-26T09:50:28.681Z,6.78
2022-11-26T09:53:00.700Z,6.88
2022-11-26T09:55:32.007Z,6.65
2022-11-26T09:58:11.488Z,6.97
2022-11-26T10:00:43.839Z,6.90
2022-11-26T10:03:17.453Z,6.63
2022-11-26T10:05:52.649Z,6.10
2022-11-26T10:08:42.867Z,7.35
2022-11-26T10:11:20.589Z,5.82
2022-11-26T10:14:04.323Z,6.55
2022-11-26T10:16:41.350Z,7.03
2022-11-26T10:19:17.575Z,7.57
2022-11-26T10:22:00.257Z,6.25
2022-11-26T10:24:33.166Z,6.68
2022-11-26T10:27:06.057Z,7.05
2022-11-26T10:29:39.613Z,6.82
2022-11-26T10:32:15.978Z,6.65
2022-11-26T10:34:50.792Z,7.05
2022-11-26T10:37:19.923Z,6.28
2022-11-26T10:39:55.244Z,6.93
2022-11-26T10:42:27.145Z,6.03
2022-11-26T10:44:55.487Z,6.88
2022-11-26T10:47:32.831Z,5.82
2022-11-26T10:50:46.710Z,6.20
2022-11-26T10:53:21.583Z,6.32
2022-11-26T10:55:50.039Z,6.93
2022-11-26T10:58:21.891Z,6.78
2022-11-26T11:00:57.869Z,6.03
2022-11-26T11:03:59.723Z,5.57
2022-11-26T11:06:38.265Z,6.20
2022-11-26T11:09:25.628Z,6.63
2022-11-26T11:12:16.461Z,6.38
2022-11-26T11:14:46.671Z,6.47
2022-11-26T11:17:33.248Z,6.82
2022-11-26T11:20:30.256Z,6.03
2022-11-26T11:23:05.428Z,6.40
2022-11-26T11:25:35.669Z,6.03
2022-11-26T11:28:12.227Z,6.40
2022-11-26T11:30:42.980Z,6.00
2022-11-26T11:33:18.985Z,6.10
2022-11-26T11:36:05.786Z,6.00
2022-11-26T11:38:48.692Z,6.78
2022-11-26T11:41:25.230Z,5.78
2022-11-26T11:44:02.762Z,6.00
2022-11-26T11:47:03.662Z,6.15
2022-11-26T11:49:45.798Z,6.18
2022-11-26T11:52:26.779Z,5.70
2022-11-26T11:55:05.564Z,6.35
2022-11-26T11:58:01.204Z,5.68
2022-11-26T12:00:37.359Z,5.70
2022-11-26T12:03:26.728Z,4.93
2022-11-26T12:06:18.481Z,5.32
2022-11-26T12:09:00.184Z,4.88
2022-11-26T12:11:39.497Z,5.35
2022-11-26T12:14:17.334Z,5.55
2022-11-26T12:16:50.611Z,5.45
2022-11-26T12:19:28.868Z,5.88
2022-11-26T12:22:04.874Z,5.45
2022-11-26T12:24:40.365Z,5.88
2022-11-26T12:27:21.797Z,5.60
2022-11-26T12:29:57.127Z,4.80
2022-11-26T12:32:34.640Z,5.35
2022-11-26T12:35:08.578Z,5.78
2022-11-26T12:37:41.500Z,5.35
2022-11-26T12:40:30.156Z,5.20
2022-11-26T12:43:07.007Z,5.13
2022-11-26T12:45:51.045Z,5.80
2022-11-26T12:48:46.857Z,5.47
2022-11-26T12:51:25.709Z,5.00
2022-11-26T12:54:02.257Z,5.45
2022-11-26T12:56:35.838Z,5.10
2022-11-26T12:59:11.477Z,5.35
2022-11-26T13:01:40.640Z,5.32
2022-11-26T13:07:15.300Z,6.28
2022-11-26T13:10:00.172Z,5.32
2022-11-26T13:12:39.087Z,5.70
2022-11-26T13:15:19.526Z,6.38
2022-11-26T13:17:50.886Z,6.40
2022-11-26T13:20:41.053Z,6.32
2022-11-26T13:23:25.523Z,7.05
2022-11-26T13:26:07.982Z,6.85
2022-11-26T13:28:54.979Z,7.18
2022-11-26T13:31:45.203Z,7.55
2022-11-26T13:34:25.782Z,10.15
2022-11-26T13:37:22.376Z,9.88
2022-11-26T13:40:24.621Z,8.88
2022-11-26T13:43:21.833Z,9.32
2022-11-26T13:46:06.667Z,9.75
2022-11-26T13:48:50.325Z,9.48
2022-11-26T13:51:25.958Z,9.85
2022-11-26T13:54:02.148Z,10.88
2022-11-26T13:56:32.867Z,9.75
2022-11-26T13:59:05.956Z,10.38
2022-11-26T14:01:40.209Z,10.10
2022-11-26T14:04:13.600Z,9.95
2022-11-26T14:07:20.905Z,11.25
2022-11-26T14:09:55.707Z,10.30
2022-11-26T14:12:25.433Z,10.48
2022-11-26T14:14:54.057Z,11.63
2022-11-26T14:17:29.939Z,10.55
2022-11-26T14:20:12.688Z,11.68
2022-11-26T14:22:42.268Z,10.32
2022-11-26T14:25:14.139Z,10.40
2022-11-26T14:27:50.702Z,11.73
2022-11-26T14:30:23.933Z,11.00
2022-11-26T14:33:12.701Z,9.82
2022-11-26T14:35:42.507Z,9.55
2022-11-26T14:38:26.596Z,10.55
2022-11-26T14:41:00.076Z,10.75
2022-11-26T14:43:30.038Z,10.38
2022-11-26T14:46:10.588Z,9.95
2022-11-26T14:48:43.977Z,10.75
2022-11-26T14:51:20.812Z,10.02
2022-11-26T14:53:51.563Z,11.18
2022-11-26T14:56:23.869Z,10.15
2022-11-26T14:58:55.659Z,10.05
2022-11-26T15:01:25.824Z,9.48
2022-11-26T15:04:02.780Z,9.65
2022-11-26T15:06:38.141Z,10.07
2022-11-26T15:09:14.437Z,9.73
2022-11-26T15:11:48.656Z,9.88
2022-11-26T15:14:26.653Z,10.48
2022-11-26T15:16:58.392Z,10.13
2022-11-26T15:19:28.149Z,10.18
2022-11-26T15:21:57.627Z,9.82
2022-11-26T15:24:28.331Z,9.52
2022-11-26T15:26:56.585Z,10.43
2022-11-26T15:29:35.136Z,9.85
2022-11-26T15:32:04.357Z,9.07
2022-11-26T15:34:34.553Z,9.20
2022-11-26T15:37:02.882Z,8.52
2022-11-26T15:39:33.486Z,9.07
2022-11-26T15:42:05.786Z,9.05
2022-11-26T15:44:42.363Z,8.90
2022-11-26T15:47:21.220Z,7.90
2022-11-26T15:49:55.404Z,8.27
2022-11-26T15:52:26.828Z,8.73
2022-11-26T15:55:12.502Z,7.97
2022-11-26T15:57:44.086Z,7.22
2022-11-26T16:00:22.940Z,7.93
2022-11-26T16:02:53.170Z,7.43
2022-11-26T16:05:28.989Z,7.97
2022-11-26T16:07:59.494Z,7.57
2022-11-26T16:10:31.433Z,7.60
2022-11-26T16:13:09.521Z,7.43
2022-11-26T16:15:47.412Z,8.07
2022-11-26T16:18:21.577Z,7.47
2022-11-26T16:20:50.462Z,7.05
2022-11-26T16:23:29.844Z,6.55
2022-11-26T16:26:15.338Z,6.40
2022-11-26T16:28:45.049Z,6.90
2022-11-26T16:31:14.231Z,7.20
2022-11-26T16:33:43.580Z,6.63
2022-11-26T16:36:24.341Z,6.25
2022-11-26T16:38:53.688Z,6.30
2022-11-26T16:41:24.128Z,5.95
2022-11-26T16:43:55.118Z,6.70
2022-11-26T16:46:25.878Z,5.78
2022-11-26T16:48:56.046Z,5.75
2022-11-26T16:51:25.011Z,6.88
2022-11-26T16:53:53.261Z,5.43
2022-11-26T16:56:25.648Z,6.07
2022-11-26T16:58:54.532Z,7.05
2022-11-26T17:01:23.275Z,5.72
2022-11-26T17:03:54.646Z,5.78
2022-11-26T17:06:26.004Z,5.72
2022-11-26T17:08:56.643Z,5.70
2022-11-26T17:11:27.174Z,6.45
2022-11-26T17:13:55.470Z,5.95
2022-11-26T17:16:26.497Z,6.10
2022-11-26T17:18:54.875Z,5.72
2022-11-26T17:21:24.610Z,6.35
2022-11-26T17:23:52.971Z,5.70
2022-11-26T17:26:22.997Z,5.65
2022-11-26T17:28:53.906Z,6.22
2022-11-26T17:31:24.293Z,5.85
2022-11-26T17:33:53.648Z,6.10
2022-11-26T17:36:24.528Z,6.00
2022-11-26T17:38:54.427Z,6.03
2022-11-26T17:41:22.919Z,6.05
2022-11-26T17:43:51.365Z,7.40
2022-11-26T17:46:22.955Z,5.82
2022-11-26T17:48:58.309Z,6.20
2022-11-26T17:51:27.992Z,6.47
2022-11-26T17:53:56.297Z,6.30
2022-11-26T17:56:26.857Z,6.13
2022-11-26T17:58:59.862Z,6.70
2022-11-26T18:01:30.329Z,7.05
2022-11-26T18:03:58.576Z,7.00
2022-11-26T18:06:38.634Z,7.53
2022-11-26T18:09:06.950Z,7.35
2022-11-26T18:11:46.535Z,8.15
2022-11-26T18:14:15.294Z,7.57
2022-11-26T18:16:47.772Z,7.70
2022-11-26T18:19:17.900Z,7.50
2022-11-26T18:21:46.741Z,7.40
2022-11-26T18:24:15.793Z,7.82
2022-11-26T18:26:44.144Z,7.88
2022-11-26T18:29:15.527Z,9.15
2022-11-26T18:31:43.830Z,7.55
2022-11-26T18:34:13.377Z,8.07
2022-11-26T18:36:41.708Z,8.32
2022-11-26T18:39:09.973Z,9.23
2022-11-26T18:41:38.757Z,8.95
2022-11-26T18:44:06.961Z,8.68
2022-11-26T18:46:37.375Z,8.93
2022-11-26T18:49:06.775Z,11.35
2022-11-26T18:51:36.312Z,10.25
2022-11-26T18:54:06.430Z,10.02
2022-11-26T18:56:34.664Z,9.27
2022-11-26T18:59:04.791Z,10.32
2022-11-26T19:01:33.429Z,10.85
2022-11-26T19:04:01.829Z,11.35
2022-11-26T19:06:33.445Z,11.50
2022-11-26T19:09:06.815Z,11.30
2022-11-26T19:11:36.029Z,11.45
2022-11-26T19:14:04.448Z,11.90
2022-11-26T19:16:32.762Z,14.07
2022-11-26T19:19:03.238Z,13.00
2022-11-26T19:21:33.905Z,14.20
2022-11-26T19:24:07.914Z,13.85
2022-11-26T19:26:37.672Z,14.60
2022-11-26T19:29:07.757Z,14.25
2022-11-26T19:31:39.660Z,16.45
2022-11-26T19:34:10.298Z,14.25
2022-11-26T19:36:39.638Z,14.38
2022-11-26T19:39:11.591Z,14.20
2022-11-26T19:41:40.237Z,14.73
2022-11-26T19:44:08.595Z,12.93
2022-11-26T19:46:41.004Z,14.45
2022-11-26T19:49:12.097Z,13.32
2022-11-26T19:51:40.665Z,14.65
2022-11-26T19:54:09.137Z,14.70
2022-11-26T19:56:39.852Z,13.45
2022-11-26T19:59:08.612Z,13.98
2022-11-26T20:01:36.971Z,13.95
2022-11-26T20:04:06.752Z,14.52
2022-11-26T20:06:36.785Z,14.45
2022-11-26T20:09:06.877Z,15.43
2022-11-26T20:11:39.905Z,14.82
2022-11-26T20:14:10.800Z,13.13
2022-11-26T20:16:41.638Z,12.88
2022-11-26T20:19:12.265Z,13.05
2022-11-26T20:21:40.699Z,13.20
2022-11-26T20:24:12.494Z,13.23
2022-11-26T20:26:45.381Z,14.27
2022-11-26T20:29:14.967Z,13.40
2022-11-26T20:31:46.322Z,12.80
2022-11-26T20:34:15.413Z,13.02
2022-11-26T20:36:43.909Z,13.07
2022-11-26T20:39:15.282Z,13.10
2022-11-26T20:41:45.558Z,13.10
2022-11-26T20:44:13.976Z,14.02
2022-11-26T20:46:44.829Z,12.82
2022-11-26T20:49:16.027Z,13.00
2022-11-26T20:51:44.314Z,13.63
2022-11-26T20:54:16.443Z,14.48
2022-11-26T20:56:45.987Z,11.80
2022-11-26T20:59:14.169Z,13.18
2022-11-26T21:01:42.496Z,13.45
2022-11-26T21:04:10.768Z,12.63
2022-11-26T21:06:42.441Z,11.93
2022-11-26T21:09:12.971Z,11.48
2022-11-26T21:11:43.227Z,10.95
2022-11-26T21:14:15.247Z,9.45
2022-11-26T21:16:44.281Z,8.43
2022-11-26T21:19:14.393Z,9.60
2022-11-26T21:21:42.772Z,9.65
2022-11-26T21:24:11.495Z,9.75
2022-11-26T21:26:39.918Z,10.57
2022-11-26T21:29:09.690Z,8.50
2022-11-26T21:31:39.897Z,9.02
2022-11-26T21:34:12.212Z,9.18
2022-11-26T21:36:42.366Z,9.82
2022-11-26T21:39:15.981Z,10.68
2022-11-26T21:41:46.545Z,9.90
2022-11-26T21:44:14.692Z,10.70
2022-11-26T21:46:44.321Z,10.43
2022-11-26T21:49:12.912Z,10.45
2022-11-26T21:51:43.595Z,10.35
2022-11-26T21:54:12.216Z,10.40
2022-11-26T21:56:42.506Z,11.20
2022-11-26T21:59:11.574Z,10.77
2022-11-26T22:01:43.237Z,11.75
2022-11-26T22:04:15.134Z,11.13
2022-11-26T22:06:44.186Z,11.13
2022-11-26T22:09:13.520Z,11.07
2022-11-26T22:11:44.980Z,11.25
2022-11-26T22:14:15.659Z,11.00
2022-11-26T22:16:48.199Z,11.07
2022-11-26T22:19:17.107Z,11.63
2022-11-26T22:21:45.516Z,10.65
2022-11-26T22:24:16.720Z,11.60
2022-11-26T22:26:45.862Z,11.38
2022-11-26T22:29:15.557Z,11.80
2022-11-26T22:31:44.544Z,11.98
2022-11-26T22:34:16.901Z,11.88
2022-11-26T22:36:46.867Z,10.07
2022-11-26T22:39:16.799Z,11.65
2022-11-26T22:41:46.029Z,11.52
2022-11-26T22:44:17.130Z,11.88
2022-11-26T22:46:46.179Z,10.63
2022-11-26T22:49:18.883Z,10.60
2022-11-26T22:51:49.188Z,12.77
2022-11-26T22:54:19.623Z,11.20
2022-11-26T22:56:48.006Z,10.38
2022-11-26T22:59:17.820Z,10.50
2022-11-26T23:01:46.585Z,11.15
2022-11-26T23:04:17.786Z,10.73
2022-11-26T23:06:48.878Z,10.02
2022-11-26T23:09:17.132Z,10.55
2022-11-26T23:11:45.687Z,11.27
2022-11-26T23:14:14.336Z,9.55
2022-11-26T23:16:43.886Z,10.02
2022-11-26T23:19:14.401Z,10.25
2022-11-26T23:21:46.674Z,9.93
2022-11-26T23:24:17.020Z,10.77
2022-11-26T23:26:47.733Z,10.52
2022-11-26T23:29:17.310Z,9.70
2022-11-26T23:31:46.561Z,9.65
2022-11-26T23:34:16.215Z,9.38
2022-11-26T23:36:47.711Z,10.75
2022-11-26T23:39:15.956Z,10.82
2022-11-26T23:41:45.193Z,10.30
2022-11-26T23:44:14.430Z,10.18
2022-11-26T23:46:45.977Z,10.27
2022-11-26T23:49:14.421Z,9.75
2022-11-26T23:51:42.619Z,8.98
2022-11-26T23:54:13.799Z,10.18
2022-11-26T23:56:44.595Z,11.27
2022-11-26T23:59:13.873Z,10.18
